sensor_id;sensor_type;location;lat;lon;timestamp;pressure;altitude;pressure_sealevel;temperature;humidity
9717;BME280;4897;43.570;27.832;2023-01-28T00:00:10;98256.56;;;3.03;100.00
9717;BME280;4897;43.570;27.832;2023-01-28T00:02:37;98291.44;;;3.21;100.00
9717;BME280;4897;43.570;27.832;2023-01-28T00:05:05;98293.00;;;3.11;100.00
9717;BME280;4897;43.570;27.832;2023-01-28T00:07:32;98265.22;;;2.80;100.00
9717;BME280;4897;43.570;27.832;2023-01-28T00:10:00;98287.94;;;2.83;100.00
9717;BME280;4897;43.570;27.832;2023-01-28T00:12:28;98314.47;;;2.94;100.00
9717;BME280;4897;43.570;27.832;2023-01-28T00:14:55;98301.56;;;2.89;100.00
9717;BME280;4897;43.570;27.832;2023-01-28T00:17:22;98315.38;;;2.80;100.00
9717;BME280;4897;43.570;27.832;2023-01-28T00:19:48;98292.19;;;2.46;100.00
9717;BME280;4897;43.570;27.832;2023-01-28T00:22:15;98316.72;;;2.61;100.00
9717;BME280;4897;43.570;27.832;2023-01-28T00:24:43;98312.47;;;2.58;100.00
9717;BME280;4897;43.570;27.832;2023-01-28T00:27:11;98313.53;;;2.56;100.00
9717;BME280;4897;43.570;27.832;2023-01-28T00:29:38;98313.78;;;2.38;100.00
9717;BME280;4897;43.570;27.832;2023-01-28T00:32:05;98307.88;;;2.35;100.00
9717;BME280;4897;43.570;27.832;2023-01-28T00:34:32;98331.19;;;2.41;100.00
9717;BME280;4897;43.570;27.832;2023-01-28T00:36:59;98334.53;;;2.30;100.00
9717;BME280;4897;43.570;27.832;2023-01-28T00:39:25;98324.66;;;2.20;100.00
9717;BME280;4897;43.570;27.832;2023-01-28T00:41:53;98342.13;;;2.08;100.00
9717;BME280;4897;43.570;27.832;2023-01-28T00:44:21;98342.03;;;2.10;100.00
9717;BME280;4897;43.570;27.832;2023-01-28T00:46:48;98331.25;;;1.86;100.00
9717;BME280;4897;43.570;27.832;2023-01-28T00:49:15;98346.28;;;1.98;100.00
9717;BME280;4897;43.570;27.832;2023-01-28T00:51:42;98319.59;;;1.76;100.00
9717;BME280;4897;43.570;27.832;2023-01-28T00:54:10;98351.00;;;1.93;100.00
9717;BME280;4897;43.570;27.832;2023-01-28T00:56:38;98351.31;;;1.75;100.00
9717;BME280;4897;43.570;27.832;2023-01-28T00:59:04;98288.47;;;1.26;100.00
9717;BME280;4897;43.570;27.832;2023-01-28T01:01:33;98361.38;;;1.68;100.00
9717;BME280;4897;43.570;27.832;2023-01-28T01:04:00;98362.25;;;1.69;100.00
9717;BME280;4897;43.570;27.832;2023-01-28T01:06:29;98368.16;;;1.58;100.00
9717;BME280;4897;43.570;27.832;2023-01-28T01:08:56;98371.34;;;1.63;100.00
9717;BME280;4897;43.570;27.832;2023-01-28T01:11:24;98378.50;;;1.61;100.00
9717;BME280;4897;43.570;27.832;2023-01-28T01:13:54;98374.94;;;1.48;100.00
9717;BME280;4897;43.570;27.832;2023-01-28T01:16:22;98379.63;;;1.43;100.00
9717;BME280;4897;43.570;27.832;2023-01-28T01:18:52;98382.84;;;1.48;100.00
9717;BME280;4897;43.570;27.832;2023-01-28T01:21:21;98376.50;;;1.50;100.00
9717;BME280;4897;43.570;27.832;2023-01-28T01:23:49;98365.88;;;1.38;100.00
9717;BME280;4897;43.570;27.832;2023-01-28T01:26:16;98380.66;;;1.26;100.00
9717;BME280;4897;43.570;27.832;2023-01-28T01:28:44;98404.56;;;1.37;100.00
9717;BME280;4897;43.570;27.832;2023-01-28T01:31:12;98371.50;;;1.18;100.00
9717;BME280;4897;43.570;27.832;2023-01-28T01:33:40;98386.81;;;1.11;100.00
9717;BME280;4897;43.570;27.832;2023-01-28T01:36:09;98416.84;;;1.23;100.00
9717;BME280;4897;43.570;27.832;2023-01-28T01:38:37;98406.72;;;1.31;100.00
9717;BME280;4897;43.570;27.832;2023-01-28T01:41:05;98382.13;;;1.16;100.00
9717;BME280;4897;43.570;27.832;2023-01-28T01:43:47;98410.91;;;1.19;100.00
9717;BME280;4897;43.570;27.832;2023-01-28T01:46:16;98438.44;;;1.14;100.00
9717;BME280;4897;43.570;27.832;2023-01-28T01:48:45;98421.50;;;1.04;100.00
9717;BME280;4897;43.570;27.832;2023-01-28T01:51:15;98371.84;;;0.52;100.00
9717;BME280;4897;43.570;27.832;2023-01-28T01:53:47;98411.56;;;0.63;100.00
9717;BME280;4897;43.570;27.832;2023-01-28T01:56:18;98373.75;;;0.19;100.00
9717;BME280;4897;43.570;27.832;2023-01-28T01:58:48;98424.44;;;0.52;100.00
9717;BME280;4897;43.570;27.832;2023-01-28T02:01:18;98439.66;;;0.47;100.00
9717;BME280;4897;43.570;27.832;2023-01-28T02:03:51;98428.19;;;0.48;100.00
9717;BME280;4897;43.570;27.832;2023-01-28T02:06:21;98420.41;;;0.47;100.00
9717;BME280;4897;43.570;27.832;2023-01-28T02:08:48;98197.38;;;-0.83;100.00
9717;BME280;4897;43.570;27.832;2023-01-28T02:11:16;98408.34;;;0.27;100.00
9717;BME280;4897;43.570;27.832;2023-01-28T02:13:46;98351.06;;;-0.13;100.00
9717;BME280;4897;43.570;27.832;2023-01-28T02:16:15;98432.47;;;0.35;100.00
9717;BME280;4897;43.570;27.832;2023-01-28T02:18:42;98413.78;;;0.24;100.00
9717;BME280;4897;43.570;27.832;2023-01-28T02:21:36;98423.31;;;0.27;100.00
9717;BME280;4897;43.570;27.832;2023-01-28T02:24:22;98427.53;;;0.29;100.00
9717;BME280;4897;43.570;27.832;2023-01-28T02:27:03;98439.59;;;0.33;100.00
9717;BME280;4897;43.570;27.832;2023-01-28T02:29:43;98409.41;;;0.25;100.00
9717;BME280;4897;43.570;27.832;2023-01-28T02:32:16;98424.31;;;0.24;100.00
9717;BME280;4897;43.570;27.832;2023-01-28T02:34:49;98439.25;;;0.39;100.00
9717;BME280;4897;43.570;27.832;2023-01-28T02:37:20;98442.97;;;0.35;100.00
9717;BME280;4897;43.570;27.832;2023-01-28T02:39:53;98443.75;;;0.37;100.00
9717;BME280;4897;43.570;27.832;2023-01-28T02:42:25;98433.13;;;0.23;100.00
9717;BME280;4897;43.570;27.832;2023-01-28T02:44:55;98435.34;;;0.31;100.00
9717;BME280;4897;43.570;27.832;2023-01-28T02:47:22;98432.97;;;0.26;100.00
9717;BME280;4897;43.570;27.832;2023-01-28T02:50:08;98447.13;;;0.39;100.00
9717;BME280;4897;43.570;27.832;2023-01-28T02:52:47;98451.44;;;0.25;100.00
9717;BME280;4897;43.570;27.832;2023-01-28T02:55:38;98437.03;;;0.16;100.00
9717;BME280;4897;43.570;27.832;2023-01-28T02:58:12;98429.53;;;-0.07;100.00
9717;BME280;4897;43.570;27.832;2023-01-28T03:00:49;98459.59;;;0.20;100.00
9717;BME280;4897;43.570;27.832;2023-01-28T03:03:24;98455.16;;;0.05;100.00
9717;BME280;4897;43.570;27.832;2023-01-28T03:05:55;98459.91;;;0.14;100.00
9717;BME280;4897;43.570;27.832;2023-01-28T03:08:34;98459.16;;;0.12;100.00
9717;BME280;4897;43.570;27.832;2023-01-28T03:11:20;98453.19;;;0.09;100.00
9717;BME280;4897;43.570;27.832;2023-01-28T03:14:05;98450.66;;;0.07;100.00
9717;BME280;4897;43.570;27.832;2023-01-28T03:16:52;98431.22;;;-0.06;100.00
9717;BME280;4897;43.570;27.832;2023-01-28T03:19:38;98461.09;;;0.09;100.00
9717;BME280;4897;43.570;27.832;2023-01-28T03:22:23;98468.19;;;0.07;100.00
9717;BME280;4897;43.570;27.832;2023-01-28T03:25:11;98452.84;;;-0.01;100.00
9717;BME280;4897;43.570;27.832;2023-01-28T03:28:01;98463.50;;;-0.04;100.00
9717;BME280;4897;43.570;27.832;2023-01-28T03:30:51;98485.47;;;-0.05;100.00
9717;BME280;4897;43.570;27.832;2023-01-28T03:33:39;98406.75;;;-0.39;100.00
9717;BME280;4897;43.570;27.832;2023-01-28T03:36:25;98467.75;;;-0.02;100.00
9717;BME280;4897;43.570;27.832;2023-01-28T03:39:09;98481.75;;;-0.01;100.00
9717;BME280;4897;43.570;27.832;2023-01-28T03:41:36;98491.06;;;-0.11;100.00
9717;BME280;4897;43.570;27.832;2023-01-28T03:44:03;98468.84;;;-0.21;100.00
9717;BME280;4897;43.570;27.832;2023-01-28T03:46:47;98474.97;;;-0.05;100.00
9717;BME280;4897;43.570;27.832;2023-01-28T03:49:16;98463.25;;;-0.15;100.00
9717;BME280;4897;43.570;27.832;2023-01-28T03:51:43;98488.31;;;0.08;100.00
9717;BME280;4897;43.570;27.832;2023-01-28T03:54:11;98447.13;;;-0.25;100.00
9717;BME280;4897;43.570;27.832;2023-01-28T03:56:37;98468.50;;;-0.15;100.00
9717;BME280;4897;43.570;27.832;2023-01-28T03:59:05;98506.66;;;-0.08;100.00
9717;BME280;4897;43.570;27.832;2023-01-28T04:01:32;98435.94;;;-0.28;100.00
9717;BME280;4897;43.570;27.832;2023-01-28T04:03:59;98503.69;;;-0.02;100.00
9717;BME280;4897;43.570;27.832;2023-01-28T04:06:27;98498.19;;;-0.13;100.00
9717;BME280;4897;43.570;27.832;2023-01-28T04:08:54;98497.56;;;-0.18;100.00
9717;BME280;4897;43.570;27.832;2023-01-28T04:11:24;98458.50;;;-0.41;100.00
9717;BME280;4897;43.570;27.832;2023-01-28T04:13:51;98473.25;;;-0.39;100.00
9717;BME280;4897;43.570;27.832;2023-01-28T04:16:19;98492.81;;;-0.27;100.00
9717;BME280;4897;43.570;27.832;2023-01-28T04:18:46;98358.72;;;-1.24;100.00
9717;BME280;4897;43.570;27.832;2023-01-28T04:21:12;98339.91;;;-1.32;100.00
9717;BME280;4897;43.570;27.832;2023-01-28T04:23:41;98526.94;;;-0.27;100.00
9717;BME280;4897;43.570;27.832;2023-01-28T04:26:08;98511.69;;;-0.21;100.00
9717;BME280;4897;43.570;27.832;2023-01-28T04:28:34;98494.34;;;-0.40;100.00
9717;BME280;4897;43.570;27.832;2023-01-28T04:31:01;98475.66;;;-0.51;100.00
9717;BME280;4897;43.570;27.832;2023-01-28T04:33:28;98522.75;;;-0.31;100.00
9717;BME280;4897;43.570;27.832;2023-01-28T04:35:55;98502.00;;;-0.36;100.00
9717;BME280;4897;43.570;27.832;2023-01-28T04:38:22;98531.16;;;-0.25;100.00
9717;BME280;4897;43.570;27.832;2023-01-28T04:40:51;98516.22;;;-0.40;100.00
9717;BME280;4897;43.570;27.832;2023-01-28T04:43:18;98527.09;;;-0.30;100.00
9717;BME280;4897;43.570;27.832;2023-01-28T04:45:46;98507.63;;;-0.26;100.00
9717;BME280;4897;43.570;27.832;2023-01-28T04:48:13;98499.44;;;-0.37;100.00
9717;BME280;4897;43.570;27.832;2023-01-28T04:50:41;98524.59;;;-0.33;100.00
9717;BME280;4897;43.570;27.832;2023-01-28T04:53:09;98512.97;;;-0.45;100.00
9717;BME280;4897;43.570;27.832;2023-01-28T04:55:36;98536.81;;;-0.32;100.00
9717;BME280;4897;43.570;27.832;2023-01-28T04:58:04;98529.63;;;-0.29;100.00
9717;BME280;4897;43.570;27.832;2023-01-28T05:00:31;98547.25;;;-0.48;100.00
9717;BME280;4897;43.570;27.832;2023-01-28T05:02:58;98550.38;;;-0.40;100.00
9717;BME280;4897;43.570;27.832;2023-01-28T05:05:25;98527.88;;;-0.45;100.00
9717;BME280;4897;43.570;27.832;2023-01-28T05:07:53;98546.09;;;-0.42;100.00
9717;BME280;4897;43.570;27.832;2023-01-28T05:10:20;98557.06;;;-0.34;100.00
9717;BME280;4897;43.570;27.832;2023-01-28T05:12:47;98532.53;;;-0.50;100.00
9717;BME280;4897;43.570;27.832;2023-01-28T05:15:16;98343.09;;;-1.78;100.00
9717;BME280;4897;43.570;27.832;2023-01-28T05:17:44;98543.34;;;-0.56;100.00
9717;BME280;4897;43.570;27.832;2023-01-28T05:20:12;98581.03;;;-0.40;100.00
9717;BME280;4897;43.570;27.832;2023-01-28T05:22:40;98572.06;;;-0.36;100.00
9717;BME280;4897;43.570;27.832;2023-01-28T05:25:08;98591.44;;;-0.39;100.00
9717;BME280;4897;43.570;27.832;2023-01-28T05:27:35;98579.31;;;-0.41;100.00
9717;BME280;4897;43.570;27.832;2023-01-28T05:30:02;98579.06;;;-0.54;100.00
9717;BME280;4897;43.570;27.832;2023-01-28T05:32:32;98575.06;;;-0.61;100.00
9717;BME280;4897;43.570;27.832;2023-01-28T05:34:59;98591.88;;;-0.48;100.00
9717;BME280;4897;43.570;27.832;2023-01-28T05:37:26;98607.63;;;-0.48;100.00
9717;BME280;4897;43.570;27.832;2023-01-28T05:39:53;98579.97;;;-0.72;100.00
9717;BME280;4897;43.570;27.832;2023-01-28T05:42:20;98601.88;;;-0.54;100.00
9717;BME280;4897;43.570;27.832;2023-01-28T05:44:47;98596.53;;;-0.53;100.00
9717;BME280;4897;43.570;27.832;2023-01-28T05:47:14;98595.19;;;-0.61;100.00
9717;BME280;4897;43.570;27.832;2023-01-28T05:49:42;98591.47;;;-0.74;100.00
9717;BME280;4897;43.570;27.832;2023-01-28T05:52:09;98621.28;;;-0.58;100.00
9717;BME280;4897;43.570;27.832;2023-01-28T05:54:36;98601.31;;;-0.61;100.00
9717;BME280;4897;43.570;27.832;2023-01-28T05:57:03;98614.22;;;-0.56;100.00
9717;BME280;4897;43.570;27.832;2023-01-28T05:59:30;98609.88;;;-0.57;100.00
9717;BME280;4897;43.570;27.832;2023-01-28T06:01:57;98616.13;;;-0.60;100.00
9717;BME280;4897;43.570;27.832;2023-01-28T06:04:23;98623.31;;;-0.63;100.00
9717;BME280;4897;43.570;27.832;2023-01-28T06:06:52;98633.81;;;-0.63;100.00
9717;BME280;4897;43.570;27.832;2023-01-28T06:09:19;98638.19;;;-0.64;100.00
9717;BME280;4897;43.570;27.832;2023-01-28T06:11:46;98644.16;;;-0.60;100.00
9717;BME280;4897;43.570;27.832;2023-01-28T06:14:14;98642.75;;;-0.67;100.00
9717;BME280;4897;43.570;27.832;2023-01-28T06:16:41;98613.97;;;-0.88;100.00
9717;BME280;4897;43.570;27.832;2023-01-28T06:19:08;98640.75;;;-0.62;100.00
9717;BME280;4897;43.570;27.832;2023-01-28T06:21:35;98645.44;;;-0.50;100.00
9717;BME280;4897;43.570;27.832;2023-01-28T06:24:04;98644.06;;;-0.23;100.00
9717;BME280;4897;43.570;27.832;2023-01-28T06:26:31;98640.19;;;-0.16;100.00
9717;BME280;4897;43.570;27.832;2023-01-28T06:28:57;98643.53;;;-0.30;100.00
9717;BME280;4897;43.570;27.832;2023-01-28T06:31:24;98651.47;;;-0.14;100.00
9717;BME280;4897;43.570;27.832;2023-01-28T06:33:51;98616.25;;;-0.44;100.00
9717;BME280;4897;43.570;27.832;2023-01-28T06:36:18;98642.47;;;-0.61;100.00
9717;BME280;4897;43.570;27.832;2023-01-28T06:38:48;98663.56;;;-0.46;100.00
9717;BME280;4897;43.570;27.832;2023-01-28T06:41:16;98648.41;;;-0.58;100.00
9717;BME280;4897;43.570;27.832;2023-01-28T06:43:43;98657.47;;;-0.29;100.00
9717;BME280;4897;43.570;27.832;2023-01-28T06:46:10;98655.16;;;-0.35;100.00
9717;BME280;4897;43.570;27.832;2023-01-28T06:48:37;98663.28;;;-0.40;100.00
9717;BME280;4897;43.570;27.832;2023-01-28T06:51:05;98670.44;;;-0.43;100.00
9717;BME280;4897;43.570;27.832;2023-01-28T06:53:32;98661.28;;;-0.35;100.00
9717;BME280;4897;43.570;27.832;2023-01-28T06:55:59;98639.41;;;-0.52;100.00
9717;BME280;4897;43.570;27.832;2023-01-28T06:58:27;98685.59;;;-0.31;100.00
9717;BME280;4897;43.570;27.832;2023-01-28T07:00:54;98679.19;;;-0.43;100.00
9717;BME280;4897;43.570;27.832;2023-01-28T07:03:20;98682.03;;;-0.47;100.00
9717;BME280;4897;43.570;27.832;2023-01-28T07:05:47;98701.38;;;-0.14;100.00
9717;BME280;4897;43.570;27.832;2023-01-28T07:08:14;98688.28;;;0.20;100.00
9717;BME280;4897;43.570;27.832;2023-01-28T07:10:41;98683.97;;;0.02;100.00
9717;BME280;4897;43.570;27.832;2023-01-28T07:13:09;98701.81;;;-0.05;100.00
9717;BME280;4897;43.570;27.832;2023-01-28T07:15:38;98690.31;;;-0.21;100.00
9717;BME280;4897;43.570;27.832;2023-01-28T07:18:04;98691.78;;;-0.32;100.00
9717;BME280;4897;43.570;27.832;2023-01-28T07:20:31;98707.84;;;-0.38;100.00
9717;BME280;4897;43.570;27.832;2023-01-28T07:22:58;98707.16;;;-0.42;100.00
9717;BME280;4897;43.570;27.832;2023-01-28T07:25:25;98698.22;;;-0.38;100.00
9717;BME280;4897;43.570;27.832;2023-01-28T07:27:52;98716.34;;;-0.33;100.00
9717;BME280;4897;43.570;27.832;2023-01-28T07:30:20;98723.22;;;-0.31;100.00
9717;BME280;4897;43.570;27.832;2023-01-28T07:32:53;98705.16;;;-0.37;100.00
9717;BME280;4897;43.570;27.832;2023-01-28T07:35:20;98703.66;;;-0.42;100.00
9717;BME280;4897;43.570;27.832;2023-01-28T07:37:51;98722.97;;;-0.43;100.00
9717;BME280;4897;43.570;27.832;2023-01-28T07:40:19;98722.06;;;-0.42;100.00
9717;BME280;4897;43.570;27.832;2023-01-28T07:42:46;98727.44;;;-0.45;100.00
9717;BME280;4897;43.570;27.832;2023-01-28T07:45:13;98648.88;;;-0.86;100.00
9717;BME280;4897;43.570;27.832;2023-01-28T07:47:41;98729.28;;;-0.47;100.00
9717;BME280;4897;43.570;27.832;2023-01-28T07:50:10;98723.75;;;-0.41;100.00
9717;BME280;4897;43.570;27.832;2023-01-28T07:52:37;98722.41;;;-0.50;100.00
9717;BME280;4897;43.570;27.832;2023-01-28T07:55:09;98705.47;;;-0.61;100.00
9717;BME280;4897;43.570;27.832;2023-01-28T07:57:47;98736.25;;;-0.46;100.00
9717;BME280;4897;43.570;27.832;2023-01-28T08:00:15;98713.19;;;-0.58;100.00
9717;BME280;4897;43.570;27.832;2023-01-28T08:02:42;98714.31;;;-0.45;100.00
9717;BME280;4897;43.570;27.832;2023-01-28T08:05:17;98735.22;;;-0.44;100.00
9717;BME280;4897;43.570;27.832;2023-01-28T08:07:45;98727.72;;;-0.51;100.00
9717;BME280;4897;43.570;27.832;2023-01-28T08:10:14;98742.13;;;-0.41;100.00
9717;BME280;4897;43.570;27.832;2023-01-28T08:12:50;98744.75;;;-0.41;100.00
9717;BME280;4897;43.570;27.832;2023-01-28T08:15:17;98742.56;;;-0.32;100.00
9717;BME280;4897;43.570;27.832;2023-01-28T08:17:44;98740.91;;;-0.34;100.00
9717;BME280;4897;43.570;27.832;2023-01-28T08:20:11;98702.53;;;-0.55;100.00
9717;BME280;4897;43.570;27.832;2023-01-28T08:22:39;98714.94;;;-0.40;100.00
9717;BME280;4897;43.570;27.832;2023-01-28T08:25:07;98745.16;;;-0.13;100.00
9717;BME280;4897;43.570;27.832;2023-01-28T08:27:34;98729.69;;;-0.19;100.00
9717;BME280;4897;43.570;27.832;2023-01-28T08:30:01;98731.97;;;-0.30;100.00
9717;BME280;4897;43.570;27.832;2023-01-28T08:32:28;98717.66;;;-0.42;100.00
9717;BME280;4897;43.570;27.832;2023-01-28T08:34:55;98759.00;;;-0.28;100.00
9717;BME280;4897;43.570;27.832;2023-01-28T08:37:25;98717.41;;;-0.37;100.00
9717;BME280;4897;43.570;27.832;2023-01-28T08:39:54;98745.97;;;-0.30;100.00
9717;BME280;4897;43.570;27.832;2023-01-28T08:42:21;98737.66;;;-0.39;100.00
9717;BME280;4897;43.570;27.832;2023-01-28T08:44:48;98734.94;;;-0.19;100.00
9717;BME280;4897;43.570;27.832;2023-01-28T08:47:14;98756.78;;;0.00;100.00
9717;BME280;4897;43.570;27.832;2023-01-28T08:49:41;98719.59;;;-0.28;100.00
9717;BME280;4897;43.570;27.832;2023-01-28T08:52:08;98749.31;;;-0.09;100.00
9717;BME280;4897;43.570;27.832;2023-01-28T08:54:35;98727.41;;;-0.27;100.00
9717;BME280;4897;43.570;27.832;2023-01-28T08:57:03;98730.25;;;-0.31;100.00
9717;BME280;4897;43.570;27.832;2023-01-28T08:59:33;98726.06;;;-0.35;100.00
9717;BME280;4897;43.570;27.832;2023-01-28T09:02:00;98736.84;;;-0.23;100.00
9717;BME280;4897;43.570;27.832;2023-01-28T09:04:27;98742.03;;;-0.21;100.00
9717;BME280;4897;43.570;27.832;2023-01-28T09:06:54;98714.22;;;-0.25;100.00
9717;BME280;4897;43.570;27.832;2023-01-28T09:09:23;98750.56;;;0.01;100.00
9717;BME280;4897;43.570;27.832;2023-01-28T09:11:53;98735.88;;;-0.03;100.00
9717;BME280;4897;43.570;27.832;2023-01-28T09:14:21;98691.63;;;-0.29;100.00
9717;BME280;4897;43.570;27.832;2023-01-28T09:16:48;98720.88;;;-0.18;100.00
9717;BME280;4897;43.570;27.832;2023-01-28T09:19:15;98741.13;;;-0.03;100.00
9717;BME280;4897;43.570;27.832;2023-01-28T09:21:42;98741.13;;;-0.03;100.00
9717;BME280;4897;43.570;27.832;2023-01-28T09:24:09;98746.53;;;-0.06;100.00
9717;BME280;4897;43.570;27.832;2023-01-28T09:26:36;98738.59;;;-0.05;100.00
9717;BME280;4897;43.570;27.832;2023-01-28T09:29:06;98743.69;;;-0.02;100.00
9717;BME280;4897;43.570;27.832;2023-01-28T09:31:34;98740.38;;;-0.05;100.00
9717;BME280;4897;43.570;27.832;2023-01-28T09:34:01;98742.41;;;0.24;100.00
9717;BME280;4897;43.570;27.832;2023-01-28T09:36:28;98751.38;;;0.20;100.00
9717;BME280;4897;43.570;27.832;2023-01-28T09:38:55;98756.31;;;0.26;100.00
9717;BME280;4897;43.570;27.832;2023-01-28T09:41:26;98755.16;;;0.15;100.00
9717;BME280;4897;43.570;27.832;2023-01-28T09:44:02;98738.84;;;0.08;100.00
9717;BME280;4897;43.570;27.832;2023-01-28T09:46:33;98723.38;;;0.02;100.00
9717;BME280;4897;43.570;27.832;2023-01-28T09:49:08;98740.09;;;0.18;100.00
9717;BME280;4897;43.570;27.832;2023-01-28T09:51:42;98749.59;;;0.21;100.00
9717;BME280;4897;43.570;27.832;2023-01-28T09:54:17;98714.56;;;0.03;100.00
9717;BME280;4897;43.570;27.832;2023-01-28T09:56:50;98744.03;;;0.10;100.00
9717;BME280;4897;43.570;27.832;2023-01-28T09:59:22;98737.66;;;-0.04;100.00
9717;BME280;4897;43.570;27.832;2023-01-28T10:01:53;98721.50;;;-0.13;100.00
9717;BME280;4897;43.570;27.832;2023-01-28T10:04:35;98730.97;;;0.08;100.00
9717;BME280;4897;43.570;27.832;2023-01-28T10:07:20;98737.22;;;0.23;100.00
9717;BME280;4897;43.570;27.832;2023-01-28T10:09:55;98737.16;;;0.24;100.00
9717;BME280;4897;43.570;27.832;2023-01-28T10:12:37;98733.41;;;0.11;100.00
9717;BME280;4897;43.570;27.832;2023-01-28T10:15:34;98730.03;;;0.09;100.00
9717;BME280;4897;43.570;27.832;2023-01-28T10:18:10;98736.06;;;0.11;100.00
9717;BME280;4897;43.570;27.832;2023-01-28T10:20:42;98733.28;;;0.14;100.00
9717;BME280;4897;43.570;27.832;2023-01-28T10:23:15;98725.75;;;0.07;100.00
9717;BME280;4897;43.570;27.832;2023-01-28T10:25:45;98752.13;;;0.05;100.00
9717;BME280;4897;43.570;27.832;2023-01-28T10:28:19;98739.53;;;0.12;100.00
9717;BME280;4897;43.570;27.832;2023-01-28T10:30:47;98741.84;;;0.00;100.00
9717;BME280;4897;43.570;27.832;2023-01-28T10:33:18;98733.47;;;-0.08;100.00
9717;BME280;4897;43.570;27.832;2023-01-28T10:35:47;98736.78;;;-0.04;100.00
9717;BME280;4897;43.570;27.832;2023-01-28T10:38:18;98733.13;;;0.00;100.00
9717;BME280;4897;43.570;27.832;2023-01-28T10:40:46;98716.41;;;0.01;100.00
9717;BME280;4897;43.570;27.832;2023-01-28T10:43:19;98707.75;;;-0.01;100.00
9717;BME280;4897;43.570;27.832;2023-01-28T10:45:54;98731.72;;;0.10;100.00
9717;BME280;4897;43.570;27.832;2023-01-28T10:48:26;98726.69;;;0.06;100.00
9717;BME280;4897;43.570;27.832;2023-01-28T10:50:57;98731.56;;;0.13;100.00
9717;BME280;4897;43.570;27.832;2023-01-28T10:53:38;98612.63;;;-0.60;100.00
9717;BME280;4897;43.570;27.832;2023-01-28T10:56:07;98732.47;;;-0.05;100.00
9717;BME280;4897;43.570;27.832;2023-01-28T10:58:45;98740.28;;;-0.04;100.00
9717;BME280;4897;43.570;27.832;2023-01-28T11:01:13;98703.06;;;-0.30;100.00
9717;BME280;4897;43.570;27.832;2023-01-28T11:03:52;98724.72;;;-0.25;100.00
9717;BME280;4897;43.570;27.832;2023-01-28T11:06:25;98725.34;;;-0.20;100.00
9717;BME280;4897;43.570;27.832;2023-01-28T11:08:52;98755.34;;;-0.07;100.00
9717;BME280;4897;43.570;27.832;2023-01-28T11:11:23;98724.97;;;0.05;100.00
9717;BME280;4897;43.570;27.832;2023-01-28T11:13:51;98684.38;;;-0.24;100.00
9717;BME280;4897;43.570;27.832;2023-01-28T11:16:20;98722.03;;;0.11;100.00
9717;BME280;4897;43.570;27.832;2023-01-28T11:18:50;98730.09;;;0.08;100.00
9717;BME280;4897;43.570;27.832;2023-01-28T11:21:19;98735.81;;;-0.02;100.00
9717;BME280;4897;43.570;27.832;2023-01-28T11:23:52;98747.13;;;-0.18;100.00
9717;BME280;4897;43.570;27.832;2023-01-28T11:26:22;98730.34;;;-0.51;100.00
9717;BME280;4897;43.570;27.832;2023-01-28T11:28:50;98733.47;;;-0.43;100.00
9717;BME280;4897;43.570;27.832;2023-01-28T11:31:19;98732.81;;;-0.30;100.00
9717;BME280;4897;43.570;27.832;2023-01-28T11:33:50;98749.50;;;-0.31;100.00
9717;BME280;4897;43.570;27.832;2023-01-28T11:36:19;98765.75;;;-0.23;100.00
9717;BME280;4897;43.570;27.832;2023-01-28T11:38:53;98761.78;;;-0.13;100.00
9717;BME280;4897;43.570;27.832;2023-01-28T11:41:26;98741.63;;;-0.31;100.00
9717;BME280;4897;43.570;27.832;2023-01-28T11:43:53;98734.13;;;-0.38;100.00
9717;BME280;4897;43.570;27.832;2023-01-28T11:46:43;98761.34;;;-0.22;100.00
9717;BME280;4897;43.570;27.832;2023-01-28T11:49:20;98761.06;;;-0.35;100.00
9717;BME280;4897;43.570;27.832;2023-01-28T11:51:56;98751.56;;;-0.37;100.00
9717;BME280;4897;43.570;27.832;2023-01-28T11:54:36;98752.69;;;-0.24;100.00
9717;BME280;4897;43.570;27.832;2023-01-28T11:57:17;98763.78;;;-0.36;100.00
9717;BME280;4897;43.570;27.832;2023-01-28T12:00:03;98760.78;;;-0.47;100.00
9717;BME280;4897;43.570;27.832;2023-01-28T12:02:53;98764.19;;;-0.27;100.00
9717;BME280;4897;43.570;27.832;2023-01-28T12:05:45;98767.28;;;-0.19;100.00
9717;BME280;4897;43.570;27.832;2023-01-28T12:08:21;98767.81;;;-0.29;100.00
9717;BME280;4897;43.570;27.832;2023-01-28T12:11:05;98786.19;;;-0.29;100.00
9717;BME280;4897;43.570;27.832;2023-01-28T12:13:51;98768.31;;;-0.21;100.00
9717;BME280;4897;43.570;27.832;2023-01-28T12:16:45;98776.13;;;-0.20;100.00
9717;BME280;4897;43.570;27.832;2023-01-28T12:19:41;98740.44;;;-0.42;100.00
9717;BME280;4897;43.570;27.832;2023-01-28T12:22:30;98757.09;;;-0.43;100.00
9717;BME280;4897;43.570;27.832;2023-01-28T12:25:16;98773.31;;;-0.34;100.00
9717;BME280;4897;43.570;27.832;2023-01-28T12:27:51;98782.16;;;-0.18;100.00
9717;BME280;4897;43.570;27.832;2023-01-28T12:30:32;98790.88;;;-0.17;100.00
9717;BME280;4897;43.570;27.832;2023-01-28T12:33:19;98814.53;;;-0.17;100.00
9717;BME280;4897;43.570;27.832;2023-01-28T12:35:58;98781.28;;;-0.18;100.00
9717;BME280;4897;43.570;27.832;2023-01-28T12:38:41;98794.13;;;-0.12;100.00
9717;BME280;4897;43.570;27.832;2023-01-28T12:41:13;98776.69;;;-0.13;100.00
9717;BME280;4897;43.570;27.832;2023-01-28T12:43:53;98812.47;;;-0.11;100.00
9717;BME280;4897;43.570;27.832;2023-01-28T12:46:35;98800.47;;;-0.16;100.00
9717;BME280;4897;43.570;27.832;2023-01-28T12:49:06;98807.44;;;-0.15;100.00
9717;BME280;4897;43.570;27.832;2023-01-28T12:51:44;98775.94;;;-0.34;100.00
9717;BME280;4897;43.570;27.832;2023-01-28T12:54:16;98805.84;;;-0.01;100.00
9717;BME280;4897;43.570;27.832;2023-01-28T12:56:49;98815.28;;;0.04;100.00
9717;BME280;4897;43.570;27.832;2023-01-28T12:59:22;98801.66;;;-0.05;100.00
9717;BME280;4897;43.570;27.832;2023-01-28T13:02:00;98809.53;;;-0.05;100.00
9717;BME280;4897;43.570;27.832;2023-01-28T13:04:33;98804.84;;;0.02;100.00
9717;BME280;4897;43.570;27.832;2023-01-28T13:07:06;98812.28;;;0.11;100.00
9717;BME280;4897;43.570;27.832;2023-01-28T13:09:47;98812.06;;;0.16;100.00
9717;BME280;4897;43.570;27.832;2023-01-28T13:12:15;98816.75;;;0.09;100.00
9717;BME280;4897;43.570;27.832;2023-01-28T13:14:44;98805.13;;;-0.04;100.00
9717;BME280;4897;43.570;27.832;2023-01-28T13:17:24;98830.91;;;-0.12;100.00
9717;BME280;4897;43.570;27.832;2023-01-28T13:19:51;98811.91;;;-0.17;100.00
9717;BME280;4897;43.570;27.832;2023-01-28T13:22:31;98832.75;;;0.05;100.00
9717;BME280;4897;43.570;27.832;2023-01-28T13:25:17;98852.94;;;0.04;100.00